Time;durP1;ratioP1;P1;durP2;ratioP2;P2;SDS_P1;SDS_P2;PMS_P1;PMS_P2;Temp;Humidity;BMP_temperature;BMP_pressure;BME280_temperature;BME280_humidity;BME280_pressure;Samples;Min_cycle;Max_cycle;Signal;HPM_P1;HPM_P2
2023/06/09 00:00:55;;;;;;;8.38;7.57;;;20.50;99.90;;;;;;6148933;23;20378;-76
2023/06/09 00:03:22;;;;;;;8.27;7.47;;;20.40;99.90;;;;;;6148597;23;20377;-76
2023/06/09 00:05:49;;;;;;;8.40;7.60;;;20.50;99.90;;;;;;6123560;23;20866;-75
2023/06/09 00:08:17;;;;;;;7.80;7.00;;;20.50;99.90;;;;;;6148702;23;20389;-75
2023/06/09 00:10:44;;;;;;;7.78;7.07;;;20.60;99.90;;;;;;6149444;23;20384;-75
2023/06/09 00:13:11;;;;;;;8.48;7.63;;;20.40;99.90;;;;;;6149196;23;20390;-75
2023/06/09 00:15:38;;;;;;;7.75;7.03;;;20.50;99.90;;;;;;6147545;23;20461;-75
2023/06/09 00:18:05;;;;;;;8.30;7.50;;;20.40;99.90;;;;;;6124651;23;20385;-76
2023/06/09 00:20:33;;;;;;;8.07;7.28;;;20.40;99.90;;;;;;6123434;23;20382;-76
2023/06/09 00:23:01;;;;;;;8.57;7.18;;;20.40;98.80;;;;;;6148688;23;20416;-76
2023/06/09 00:25:28;;;;;;;7.67;6.87;;;20.40;98.90;;;;;;6147605;23;20378;-76
2023/06/09 00:27:55;;;;;;;7.57;6.88;;;20.40;97.40;;;;;;6148882;23;20382;-76
2023/06/09 00:30:22;;;;;;;8.05;7.20;;;20.50;97.00;;;;;;6148435;23;20642;-76
2023/06/09 00:33:05;;;;;;;7.40;6.70;;;20.50;97.40;;;;;;6147446;23;20764;-75
2023/06/09 00:35:32;;;;;;;6.90;6.30;;;20.60;96.70;;;;;;6149695;23;20717;-76
2023/06/09 00:37:59;;;;;;;7.38;6.68;;;20.60;95.80;;;;;;6148976;23;20445;-76
2023/06/09 00:40:26;;;;;;;7.63;6.80;;;20.60;95.80;;;;;;6124077;23;20382;-76
2023/06/09 00:42:53;;;;;;;7.43;6.55;;;20.60;96.30;;;;;;6147468;23;20402;-75
2023/06/09 00:45:20;;;;;;;7.88;6.75;;;20.50;96.00;;;;;;6148952;23;20393;-75
2023/06/09 00:47:47;;;;;;;7.43;6.72;;;20.50;96.70;;;;;;6147002;23;20425;-75
2023/06/09 00:50:16;;;;;;;7.10;6.40;;;20.60;96.60;;;;;;6124348;23;20386;-76
2023/06/09 00:52:45;;;;;;;7.60;6.35;;;20.50;97.20;;;;;;6147326;23;20374;-76
2023/06/09 00:55:12;;;;;;;6.57;6.00;;;20.50;97.20;;;;;;6149659;23;20373;-76
2023/06/09 00:57:44;;;;;;;6.38;5.88;;;20.40;96.60;;;;;;6147716;23;20382;-75
2023/06/09 01:00:15;;;;;;;6.50;5.90;;;20.30;97.70;;;;;;6124017;23;20373;-75
2023/06/09 01:02:43;;;;;;;6.60;6.00;;;20.30;97.50;;;;;;6147746;23;20378;-76
2023/06/09 01:05:12;;;;;;;6.78;6.10;;;20.40;97.30;;;;;;6171859;23;20387;-75
2023/06/09 01:07:54;;;;;;;6.13;5.30;;;20.40;97.50;;;;;;6178598;23;20380;-76
2023/06/09 01:10:39;;;;;;;5.55;5.10;;;20.40;97.40;;;;;;6151895;23;20369;-75
2023/06/09 01:13:20;;;;;;;5.35;4.85;;;20.40;95.90;;;;;;6151986;23;20464;-77
2023/06/09 01:16:03;;;;;;;6.18;5.60;;;20.40;96.70;;;;;;6151467;23;20676;-77
2023/06/09 01:18:32;;;;;;;5.97;5.47;;;20.40;96.70;;;;;;6177222;23;20454;-76
2023/06/09 01:21:12;;;;;;;5.88;5.28;;;20.30;96.50;;;;;;6178051;23;20368;-77
2023/06/09 01:24:19;;;;;;;6.28;5.70;;;20.20;96.80;;;;;;6177390;23;20456;-77
2023/06/09 01:26:50;;;;;;;6.53;5.72;;;20.10;97.60;;;;;;6116047;23;20372;-77
2023/06/09 01:29:20;;;;;;;6.32;5.72;;;20.10;97.90;;;;;;6151752;23;20376;-76
2023/06/09 01:31:48;;;;;;;6.47;5.78;;;20.00;98.20;;;;;;6151312;23;20676;-77
2023/06/09 01:34:16;;;;;;;6.83;6.13;;;20.00;98.30;;;;;;6178104;23;20703;-76
2023/06/09 01:36:44;;;;;;;6.68;5.75;;;20.10;99.00;;;;;;6175820;23;20384;-77
2023/06/09 01:39:11;;;;;;;6.57;5.78;;;20.00;98.20;;;;;;6151336;23;20406;-76
2023/06/09 01:41:39;;;;;;;6.05;5.45;;;19.90;98.50;;;;;;6176827;23;20431;-76
2023/06/09 01:44:06;;;;;;;6.73;5.87;;;19.90;98.40;;;;;;6153036;23;20376;-76
2023/06/09 01:46:33;;;;;;;6.13;5.53;;;19.80;98.60;;;;;;6177598;23;20380;-77
2023/06/09 01:49:14;;;;;;;6.30;5.80;;;19.90;99.20;;;;;;6178942;23;20384;-76
2023/06/09 01:51:51;;;;;;;6.00;5.50;;;19.80;98.50;;;;;;6152481;23;20427;-76
2023/06/09 01:54:35;;;;;;;6.18;5.68;;;19.80;98.80;;;;;;6153011;23;20751;-75
2023/06/09 01:57:39;;;;;;;6.60;6.00;;;19.80;98.50;;;;;;6152646;23;20368;-77
2023/06/09 02:00:08;;;;;;;6.13;5.63;;;19.80;98.40;;;;;;6112668;23;20372;-77
2023/06/09 02:02:38;;;;;;;5.87;5.37;;;19.80;98.90;;;;;;6152210;23;20433;-77
2023/06/09 02:05:06;;;;;;;6.00;5.43;;;19.80;97.90;;;;;;6152034;23;20368;-77
2023/06/09 02:07:34;;;;;;;5.60;5.13;;;19.80;97.90;;;;;;6178548;23;20431;-76
2023/06/09 02:10:03;;;;;;;5.88;5.20;;;19.80;98.60;;;;;;6151123;23;20379;-76
2023/06/09 02:12:33;;;;;;;5.85;5.03;;;19.80;97.80;;;;;;6178996;23;20399;-77
2023/06/09 02:15:01;;;;;;;6.10;5.57;;;19.80;98.20;;;;;;6152339;23;20449;-77
2023/06/09 02:17:28;;;;;;;6.13;5.53;;;19.80;98.10;;;;;;6152986;23;20383;-77
2023/06/09 02:19:55;;;;;;;5.78;5.03;;;19.80;98.90;;;;;;6151936;23;20376;-78
2023/06/09 02:22:22;;;;;;;6.00;5.30;;;19.70;98.00;;;;;;6152723;23;20373;-77
2023/06/09 02:24:49;;;;;;;5.90;5.40;;;19.80;97.70;;;;;;6152196;23;20746;-77
2023/06/09 02:27:16;;;;;;;6.10;5.50;;;19.80;97.80;;;;;;6153171;23;20521;-76
2023/06/09 02:29:45;;;;;;;6.40;5.80;;;19.70;98.50;;;;;;6180973;23;20391;-79
2023/06/09 02:32:12;;;;;;;5.55;5.15;;;19.70;98.30;;;;;;6155863;23;20391;-80
2023/06/09 02:34:41;;;;;;;6.47;5.63;;;19.70;98.40;;;;;;6156170;23;20376;-80
2023/06/09 02:37:09;;;;;;;6.03;5.45;;;19.70;98.50;;;;;;6154585;23;20406;-79
2023/06/09 02:39:36;;;;;;;6.43;5.72;;;19.70;97.80;;;;;;6155835;23;20380;-78
2023/06/09 02:42:03;;;;;;;5.97;5.38;;;19.70;97.50;;;;;;6152734;23;20376;-79
2023/06/09 02:44:36;;;;;;;5.40;4.90;;;19.90;97.70;;;;;;6155224;23;20376;-79
2023/06/09 02:47:05;;;;;;;5.90;5.32;;;19.80;97.00;;;;;;6154578;23;20376;-79
2023/06/09 02:49:32;;;;;;;5.85;5.22;;;19.90;97.10;;;;;;6155452;23;20758;-80
2023/06/09 02:51:59;;;;;;;6.15;5.13;;;19.90;96.00;;;;;;6154590;23;20395;-79
2023/06/09 02:54:26;;;;;;;6.15;5.32;;;19.80;95.80;;;;;;6155755;23;20914;-79
2023/06/09 02:56:53;;;;;;;6.35;5.35;;;20.00;96.40;;;;;;6154788;23;20439;-80
2023/06/09 02:59:20;;;;;;;5.05;4.60;;;19.90;95.90;;;;;;6155755;23;20379;-80
2023/06/09 03:01:47;;;;;;;5.78;5.18;;;19.90;96.10;;;;;;6154339;23;20451;-79
2023/06/09 03:04:17;;;;;;;6.63;5.03;;;19.90;95.90;;;;;;6179477;23;20380;-79
2023/06/09 03:06:44;;;;;;;6.00;5.50;;;19.80;95.70;;;;;;6155256;23;20411;-79
2023/06/09 03:09:12;;;;;;;5.38;4.88;;;19.80;95.40;;;;;;6153986;23;20424;-79
2023/06/09 03:11:40;;;;;;;5.00;4.60;;;19.80;95.20;;;;;;6155374;23;20407;-79
2023/06/09 03:14:07;;;;;;;5.78;5.07;;;19.90;96.20;;;;;;6180212;23;20379;-79
2023/06/09 03:16:34;;;;;;;7.45;5.05;;;19.90;95.00;;;;;;6154954;23;20408;-79
2023/06/09 03:19:01;;;;;;;6.32;5.18;;;20.10;95.10;;;;;;6154040;23;20376;-80
2023/06/09 03:21:28;;;;;;;5.47;4.97;;;20.10;95.30;;;;;;6181157;23;20383;-79
2023/06/09 03:23:56;;;;;;;5.20;4.77;;;20.10;95.70;;;;;;6154322;23;20435;-79
2023/06/09 03:26:25;;;;;;;5.40;4.90;;;20.00;95.60;;;;;;6154977;23;20380;-79
2023/06/09 03:28:52;;;;;;;5.22;4.75;;;20.00;95.40;;;;;;6153847;23;20722;-79
2023/06/09 03:31:22;;;;;;;6.00;5.13;;;20.10;94.70;;;;;;6155560;23;20409;-79
2023/06/09 03:33:49;;;;;;;5.57;5.03;;;20.10;94.20;;;;;;6155730;23;20403;-80
2023/06/09 03:36:16;;;;;;;5.40;4.90;;;19.90;93.50;;;;;;6154126;23;20371;-81
2023/06/09 03:38:43;;;;;;;5.38;4.85;;;19.90;94.80;;;;;;6180649;23;20379;-80
2023/06/09 03:41:10;;;;;;;7.35;5.28;;;20.00;95.40;;;;;;6153668;23;20380;-80
2023/06/09 03:43:36;;;;;;;6.13;5.53;;;20.10;95.40;;;;;;6154668;23;20383;-80
2023/06/09 03:46:03;;;;;;;4.83;4.43;;;20.00;93.90;;;;;;6154557;23;20438;-80
2023/06/09 03:48:30;;;;;;;5.13;4.63;;;19.90;93.40;;;;;;6154015;23;20454;-79
2023/06/09 03:50:57;;;;;;;5.07;4.60;;;19.90;93.80;;;;;;6153837;23;20376;-80
2023/06/09 03:53:24;;;;;;;5.80;4.30;;;19.90;93.90;;;;;;6155024;23;20388;-80
2023/06/09 03:55:51;;;;;;;6.68;4.68;;;19.90;93.50;;;;;;6155264;23;20735;-80
2023/06/09 03:58:18;;;;;;;4.78;4.38;;;19.90;93.60;;;;;;6153903;23;20688;-81
2023/06/09 04:00:45;;;;;;;4.78;4.22;;;20.00;94.50;;;;;;6155266;23;20376;-80
2023/06/09 04:03:13;;;;;;;6.43;4.93;;;20.00;93.20;;;;;;6153502;23;20380;-80
2023/06/09 04:05:40;;;;;;;5.10;4.57;;;20.10;93.70;;;;;;6155030;23;20377;-81
2023/06/09 04:08:08;;;;;;;5.68;4.97;;;20.00;93.30;;;;;;6153763;23;20372;-80
2023/06/09 04:10:34;;;;;;;4.87;4.47;;;20.10;93.50;;;;;;6154842;23;20380;-80
2023/06/09 04:13:01;;;;;;;5.28;4.72;;;20.30;94.00;;;;;;6153913;23;20381;-81
2023/06/09 04:15:28;;;;;;;5.95;5.13;;;20.50;92.50;;;;;;6154633;23;20427;-81
2023/06/09 04:17:57;;;;;;;12.45;9.65;;;20.40;92.70;;;;;;6179882;23;20368;-80
2023/06/09 04:20:24;;;;;;;15.10;12.63;;;20.40;94.00;;;;;;6154887;23;20444;-80
2023/06/09 04:22:52;;;;;;;14.23;12.77;;;20.20;95.10;;;;;;6155138;23;20399;-80
2023/06/09 04:25:25;;;;;;;15.82;14.23;;;20.10;95.70;;;;;;6179890;23;20361;-80
2023/06/09 04:27:53;;;;;;;17.23;15.53;;;20.10;98.20;;;;;;6154756;23;20372;-80
2023/06/09 04:30:29;;;;;;;14.10;12.77;;;20.10;99.70;;;;;;6153807;23;20376;-82
2023/06/09 04:33:04;;;;;;;7.93;7.22;;;20.30;99.90;;;;;;6131724;23;20430;-81
2023/06/09 04:35:32;;;;;;;6.30;5.40;;;20.40;96.20;;;;;;6179554;23;20376;-80
2023/06/09 04:37:59;;;;;;;5.07;4.60;;;20.50;92.70;;;;;;6155107;23;20380;-80
2023/06/09 04:40:30;;;;;;;5.28;4.78;;;20.50;92.70;;;;;;6154490;23;20380;-80
2023/06/09 04:42:59;;;;;;;9.73;8.73;;;20.50;92.60;;;;;;6154187;23;20384;-81
2023/06/09 04:45:33;;;;;;;9.48;8.48;;;20.60;98.30;;;;;;6129240;23;20706;-81
2023/06/09 04:48:01;;;;;;;11.47;10.27;;;20.60;98.70;;;;;;6179922;23;20372;-80
2023/06/09 04:50:35;;;;;;;12.68;10.10;;;20.80;99.90;;;;;;6153860;23;22418;-80
2023/06/09 04:53:03;;;;;;;10.07;9.00;;;20.80;99.90;;;;;;6154342;23;20368;-80
2023/06/09 04:55:32;;;;;;;9.48;8.57;;;20.70;99.90;;;;;;6153305;23;20375;-81
2023/06/09 04:57:59;;;;;;;9.77;8.77;;;20.50;99.90;;;;;;6153939;23;20430;-80
2023/06/09 05:00:27;;;;;;;7.47;6.78;;;20.50;99.90;;;;;;6153383;23;20380;-81
2023/06/09 05:02:56;;;;;;;7.03;6.20;;;20.60;99.90;;;;;;6153454;23;20427;-81
2023/06/09 05:05:24;;;;;;;6.30;5.70;;;20.60;97.50;;;;;;6147953;23;20924;-80
2023/06/09 05:07:51;;;;;;;5.35;4.85;;;20.60;97.00;;;;;;6149564;23;20712;-81
2023/06/09 05:10:18;;;;;;;5.45;4.95;;;20.50;97.60;;;;;;6148495;23;20686;-81
2023/06/09 05:12:45;;;;;;;8.60;7.70;;;20.40;98.30;;;;;;6149382;23;20482;-82
2023/06/09 05:15:12;;;;;;;9.15;7.88;;;20.60;99.90;;;;;;6149020;23;20689;-81
2023/06/09 05:17:42;;;;;;;9.15;8.07;;;20.50;99.90;;;;;;6148735;23;20388;-81
2023/06/09 05:20:10;;;;;;;9.45;8.55;;;20.40;99.90;;;;;;6150415;23;20421;-81
2023/06/09 05:22:38;;;;;;;9.45;8.48;;;20.20;99.90;;;;;;6147778;23;20383;-81
2023/06/09 05:25:08;;;;;;;9.07;8.27;;;20.10;99.90;;;;;;6149168;23;20409;-82
2023/06/09 05:27:36;;;;;;;10.10;9.07;;;20.20;99.90;;;;;;6148433;23;20461;-82
2023/06/09 05:30:03;;;;;;;10.88;9.77;;;20.20;99.90;;;;;;6148479;23;20410;-82
2023/06/09 05:32:31;;;;;;;10.53;9.50;;;20.30;99.90;;;;;;6147807;23;20469;-81
2023/06/09 05:34:58;;;;;;;11.00;9.68;;;20.30;99.90;;;;;;6148717;23;20848;-81
2023/06/09 05:37:25;;;;;;;10.10;9.10;;;20.20;99.90;;;;;;6149102;23;20374;-81
2023/06/09 05:39:52;;;;;;;9.98;8.98;;;20.30;99.90;;;;;;6149257;23;20382;-81
2023/06/09 05:42:19;;;;;;;10.23;9.15;;;20.30;99.90;;;;;;6147856;23;20378;-81
2023/06/09 05:44:46;;;;;;;10.63;9.52;;;20.40;99.90;;;;;;6148248;23;20389;-80
2023/06/09 05:47:13;;;;;;;11.77;10.15;;;20.50;99.90;;;;;;6148331;23;20770;-81
2023/06/09 05:49:40;;;;;;;12.02;10.70;;;20.50;99.90;;;;;;6147761;23;20382;-80
2023/06/09 05:52:07;;;;;;;13.60;10.85;;;20.40;99.90;;;;;;6148340;23;20378;-80
2023/06/09 05:54:34;;;;;;;11.57;10.50;;;20.40;99.90;;;;;;6147276;23;20397;-79
2023/06/09 05:57:03;;;;;;;10.95;9.85;;;20.40;99.90;;;;;;6150330;23;20785;-79
2023/06/09 05:59:32;;;;;;;11.15;9.90;;;20.30;99.90;;;;;;6148311;23;20911;-80
2023/06/09 06:02:00;;;;;;;12.43;11.18;;;20.30;99.90;;;;;;6148459;23;20700;-80
2023/06/09 06:04:28;;;;;;;11.75;10.55;;;20.30;99.90;;;;;;6147779;23;20428;-79
2023/06/09 06:06:55;;;;;;;11.70;10.63;;;20.20;99.90;;;;;;6148449;23;20696;-80
2023/06/09 06:09:22;;;;;;;12.55;11.30;;;20.10;99.90;;;;;;6147753;23;20389;-80
2023/06/09 06:11:49;;;;;;;12.25;11.05;;;20.00;99.90;;;;;;6147973;23;20374;-82
2023/06/09 06:14:16;;;;;;;12.75;11.40;;;19.80;99.90;;;;;;6148535;23;20385;-82
2023/06/09 06:16:44;;;;;;;13.82;12.48;;;19.70;99.90;;;;;;6148635;23;20776;-84
2023/06/09 06:19:11;;;;;;;14.48;12.93;;;19.50;99.90;;;;;;6148866;23;20378;-83
2023/06/09 06:21:42;;;;;;;14.77;13.27;;;19.40;99.90;;;;;;6147547;23;20488;-84
2023/06/09 06:24:09;;;;;;;16.05;14.30;;;19.30;99.90;;;;;;6149203;23;20386;-83
2023/06/09 06:26:36;;;;;;;14.90;13.40;;;19.20;99.90;;;;;;6148038;23;20401;-85
2023/06/09 06:29:04;;;;;;;14.97;13.30;;;19.20;99.90;;;;;;6148974;23;20712;-83
2023/06/09 06:31:31;;;;;;;14.65;13.15;;;19.10;99.90;;;;;;6147632;23;20373;-84
2023/06/09 06:33:58;;;;;;;15.48;13.60;;;19.10;99.90;;;;;;6148795;23;20370;-83
2023/06/09 06:36:26;;;;;;;13.87;12.43;;;19.10;99.90;;;;;;6148988;23;20373;-84
2023/06/09 06:38:53;;;;;;;14.83;13.33;;;19.10;99.90;;;;;;6149113;23;20378;-84
2023/06/09 06:41:20;;;;;;;12.90;11.60;;;19.20;99.90;;;;;;6142362;23;20386;-84
2023/06/09 06:43:49;;;;;;;13.80;12.30;;;19.20;99.90;;;;;;6143641;23;20378;-84
2023/06/09 06:46:17;;;;;;;13.25;11.95;;;19.20;99.90;;;;;;6148277;23;20470;-84
2023/06/09 06:48:44;;;;;;;12.93;11.63;;;19.20;99.90;;;;;;6147240;23;20378;-83
2023/06/09 06:51:12;;;;;;;12.70;11.50;;;19.20;99.90;;;;;;6148184;23;20370;-83
2023/06/09 06:53:39;;;;;;;13.30;11.63;;;19.30;99.90;;;;;;6147716;23;20461;-83
2023/06/09 06:56:06;;;;;;;10.67;9.67;;;19.30;99.90;;;;;;6148359;23;20374;-83
2023/06/09 06:58:33;;;;;;;12.30;11.00;;;19.40;99.90;;;;;;6147536;23;20378;-84
2023/06/09 07:01:00;;;;;;;12.55;11.25;;;19.40;99.90;;;;;;6148877;23;20370;-83
2023/06/09 07:03:33;;;;;;;12.02;10.82;;;19.60;99.90;;;;;;6153636;23;20376;-83
2023/06/09 07:06:03;;;;;;;12.10;10.90;;;19.60;99.90;;;;;;6153586;23;20368;-83
2023/06/09 07:08:31;;;;;;;10.65;9.68;;;19.60;99.90;;;;;;6152880;23;20430;-83
2023/06/09 07:10:57;;;;;;;10.82;9.75;;;19.70;99.90;;;;;;6153037;23;20385;-83
2023/06/09 07:13:24;;;;;;;10.80;9.73;;;19.80;99.90;;;;;;6151732;23;20386;-82
2023/06/09 07:15:51;;;;;;;11.40;10.30;;;19.90;99.90;;;;;;6154532;23;20368;-82
2023/06/09 07:18:18;;;;;;;11.10;10.00;;;20.10;99.90;;;;;;6155351;23;20779;-82
2023/06/09 07:20:47;;;;;;;11.60;10.40;;;20.20;99.90;;;;;;6154025;23;20380;-82
2023/06/09 07:23:14;;;;;;;12.93;10.68;;;20.40;99.90;;;;;;6154959;23;20392;-81
2023/06/09 07:25:41;;;;;;;11.23;10.13;;;20.50;99.90;;;;;;6153670;23;20399;-81
2023/06/09 07:28:08;;;;;;;9.63;8.50;;;20.40;99.90;;;;;;6155276;23;20907;-81
2023/06/09 07:30:35;;;;;;;11.15;9.75;;;20.30;99.90;;;;;;6152503;23;20384;-81
2023/06/09 07:33:05;;;;;;;9.53;8.53;;;20.40;99.90;;;;;;6155061;23;20379;-81
2023/06/09 07:35:32;;;;;;;9.27;8.45;;;20.30;99.90;;;;;;6153974;23;20377;-80
2023/06/09 07:38:01;;;;;;;11.23;10.03;;;20.40;99.90;;;;;;6154740;23;20376;-81
2023/06/09 07:40:27;;;;;;;10.65;9.65;;;20.70;99.90;;;;;;6153839;23;20380;-81
2023/06/09 07:42:56;;;;;;;11.10;8.95;;;20.90;99.90;;;;;;6154735;23;20373;-80
2023/06/09 07:45:23;;;;;;;11.30;10.20;;;21.00;99.90;;;;;;6154738;23;20447;-80
2023/06/09 07:47:50;;;;;;;11.88;10.57;;;21.10;99.90;;;;;;6153546;23;20693;-81
2023/06/09 07:50:17;;;;;;;12.57;11.38;;;21.00;99.90;;;;;;6154675;23;20381;-80
2023/06/09 07:52:44;;;;;;;12.83;11.53;;;21.00;99.90;;;;;;6153521;23;20411;-79
2023/06/09 07:55:11;;;;;;;13.40;12.10;;;20.90;99.90;;;;;;6155195;23;20778;-81
2023/06/09 07:57:43;;;;;;;13.30;12.00;;;20.90;99.90;;;;;;6153641;23;20774;-80
2023/06/09 08:00:13;;;;;;;13.88;12.45;;;20.90;99.90;;;;;;6153958;23;20387;-80
2023/06/09 08:02:42;;;;;;;13.45;12.15;;;21.00;99.90;;;;;;6153224;23;20387;-80
2023/06/09 08:05:09;;;;;;;13.50;12.13;;;21.00;99.90;;;;;;6153777;23;20411;-80
2023/06/09 08:07:37;;;;;;;12.90;11.40;;;21.10;99.90;;;;;;6153520;23;20408;-80
2023/06/09 08:10:05;;;;;;;13.10;11.63;;;21.00;99.90;;;;;;6154273;23;20380;-80
2023/06/09 08:12:34;;;;;;;12.23;11.02;;;21.10;99.90;;;;;;6153969;23;20373;-80
2023/06/09 08:15:01;;;;;;;10.98;9.98;;;21.20;99.90;;;;;;6154432;23;20399;-82
2023/06/09 08:17:28;;;;;;;11.75;10.52;;;21.20;99.90;;;;;;6153579;23;20380;-82
2023/06/09 08:19:55;;;;;;;11.80;10.70;;;21.20;99.90;;;;;;6154075;23;20754;-80
2023/06/09 08:22:22;;;;;;;11.52;10.43;;;21.20;99.90;;;;;;6154175;23;20391;-81
2023/06/09 08:24:48;;;;;;;11.77;10.43;;;21.30;99.90;;;;;;6152966;23;20379;-80
2023/06/09 08:27:15;;;;;;;11.07;9.95;;;21.40;99.90;;;;;;6153958;23;20711;-80
2023/06/09 08:29:42;;;;;;;14.02;12.52;;;21.30;99.90;;;;;;6152967;23;20501;-80
2023/06/09 08:32:09;;;;;;;14.23;12.77;;;21.40;99.90;;;;;;6153118;23;20376;-80
2023/06/09 08:34:36;;;;;;;13.80;12.50;;;21.50;99.90;;;;;;6153126;23;20379;-82
2023/06/09 08:37:03;;;;;;;13.60;12.27;;;21.70;99.90;;;;;;6154601;23;20388;-80
2023/06/09 08:39:30;;;;;;;14.90;13.40;;;21.70;99.90;;;;;;6154268;23;20424;-79
2023/06/09 08:42:00;;;;;;;14.52;13.13;;;21.80;99.90;;;;;;6153598;23;20456;-80
2023/06/09 08:44:29;;;;;;;13.97;12.67;;;21.90;99.90;;;;;;6153853;23;20438;-80
2023/06/09 08:47:00;;;;;;;14.32;12.30;;;22.00;99.90;;;;;;6153089;23;20842;-80
2023/06/09 08:49:28;;;;;;;14.13;12.27;;;21.90;99.90;;;;;;6153096;23;20384;-80
2023/06/09 08:51:58;;;;;;;15.88;12.57;;;22.00;99.90;;;;;;6153086;23;20364;-80
2023/06/09 08:54:25;;;;;;;15.20;13.63;;;21.90;99.10;;;;;;6154033;23;20368;-80
2023/06/09 08:56:52;;;;;;;16.30;13.93;;;21.90;99.90;;;;;;6153250;23;20376;-80
2023/06/09 08:59:21;;;;;;;15.38;13.77;;;21.80;99.90;;;;;;6154042;23;20726;-80
2023/06/09 09:01:52;;;;;;;16.02;14.32;;;21.70;99.90;;;;;;6152345;23;20368;-80
2023/06/09 09:04:19;;;;;;;19.23;15.20;;;21.70;99.90;;;;;;6179352;23;20376;-80
2023/06/09 09:06:47;;;;;;;16.35;14.23;;;21.70;99.90;;;;;;6153041;23;20952;-79
2023/06/09 09:09:13;;;;;;;16.23;14.63;;;21.70;99.90;;;;;;6152936;23;20376;-78
2023/06/09 09:11:45;;;;;;;15.93;14.32;;;21.70;99.90;;;;;;6153085;23;20376;-79
2023/06/09 09:14:13;;;;;;;16.23;14.63;;;21.70;99.90;;;;;;6153882;23;20430;-79
2023/06/09 09:16:40;;;;;;;15.90;14.30;;;21.70;99.90;;;;;;6152824;23;20432;-80
2023/06/09 09:19:08;;;;;;;15.55;13.95;;;21.80;99.70;;;;;;6153628;23;20377;-79
2023/06/09 09:21:38;;;;;;;15.43;13.85;;;21.90;99.90;;;;;;6152166;23;20430;-79
2023/06/09 09:24:11;;;;;;;16.15;14.20;;;22.10;99.90;;;;;;6152301;23;20368;-79
2023/06/09 09:26:40;;;;;;;14.07;12.30;;;22.10;96.60;;;;;;6153694;23;20450;-79
2023/06/09 09:29:09;;;;;;;16.20;14.50;;;22.10;98.40;;;;;;6153063;23;20360;-79
2023/06/09 09:31:41;;;;;;;15.68;14.10;;;22.30;95.60;;;;;;6152525;23;20442;-79
2023/06/09 09:34:13;;;;;;;16.70;14.68;;;22.30;93.90;;;;;;6152817;23;20785;-80
2023/06/09 09:36:52;;;;;;;15.25;13.75;;;22.30;94.30;;;;;;6153415;23;20384;-79
2023/06/09 09:39:20;;;;;;;16.13;14.43;;;22.30;95.30;;;;;;6152957;23;20442;-79
2023/06/09 09:42:06;;;;;;;17.27;15.18;;;22.40;95.20;;;;;;6152968;23;20380;-79
2023/06/09 09:44:40;;;;;;;17.00;15.20;;;22.40;96.50;;;;;;6153026;23;20379;-80
2023/06/09 09:47:14;;;;;;;16.50;14.90;;;22.60;95.80;;;;;;6152962;23;20412;-80
2023/06/09 09:49:55;;;;;;;16.25;14.55;;;22.70;94.90;;;;;;6179646;23;20388;-80
2023/06/09 09:52:34;;;;;;;15.60;14.00;;;22.70;95.00;;;;;;6152311;23;20376;-80
2023/06/09 09:55:08;;;;;;;15.93;14.23;;;22.80;95.60;;;;;;6153811;23;20424;-80
2023/06/09 09:57:36;;;;;;;16.27;14.68;;;22.80;96.80;;;;;;6152262;23;20376;-83
2023/06/09 10:00:12;;;;;;;15.83;14.20;;;22.80;95.60;;;;;;6153291;23;20380;-80
2023/06/09 10:02:45;;;;;;;16.50;14.88;;;22.90;95.90;;;;;;6152514;23;20402;-81
2023/06/09 10:05:16;;;;;;;17.02;15.30;;;22.90;95.70;;;;;;6153333;23;20381;-80
2023/06/09 10:07:48;;;;;;;17.75;15.45;;;23.00;95.70;;;;;;6153028;23;20377;-80
2023/06/09 10:10:16;;;;;;;16.63;14.93;;;23.20;95.30;;;;;;6153340;23;20761;-81
2023/06/09 10:12:43;;;;;;;16.13;14.55;;;23.40;94.40;;;;;;6152349;23;20474;-80
2023/06/09 10:15:12;;;;;;;15.57;14.05;;;23.90;93.70;;;;;;6153494;23;20376;-81
2023/06/09 10:17:41;;;;;;;14.60;13.13;;;24.30;91.20;;;;;;6151972;23;20376;-82
2023/06/09 10:20:09;;;;;;;15.47;13.33;;;24.60;85.50;;;;;;6153634;23;20378;-81
2023/06/09 10:22:36;;;;;;;15.65;13.93;;;24.70;83.10;;;;;;6152683;23;20403;-80
2023/06/09 10:25:04;;;;;;;17.05;14.25;;;24.60;82.40;;;;;;6152962;23;20376;-82
2023/06/09 10:27:32;;;;;;;14.67;13.13;;;24.50;85.70;;;;;;6152641;23;20407;-82
2023/06/09 10:30:01;;;;;;;15.10;13.60;;;24.70;85.40;;;;;;6152638;23;20439;-82
2023/06/09 10:32:30;;;;;;;15.45;13.85;;;24.90;77.90;;;;;;6153295;23;20425;-81
2023/06/09 10:34:59;;;;;;;14.20;12.80;;;24.90;80.10;;;;;;6153322;23;20759;-82
2023/06/09 10:37:30;;;;;;;16.55;14.85;;;25.10;80.50;;;;;;6179614;23;20408;-80
2023/06/09 10:40:09;;;;;;;14.93;13.43;;;25.30;76.40;;;;;;6177890;23;20372;-81
2023/06/09 10:42:36;;;;;;;17.70;13.13;;;25.60;80.30;;;;;;6152431;23;20450;-81
2023/06/09 10:45:12;;;;;;;13.63;12.23;;;26.00;79.60;;;;;;6153718;23;20376;-82
2023/06/09 10:47:45;;;;;;;14.45;12.75;;;26.30;74.70;;;;;;6151735;23;20679;-82
2023/06/09 10:50:22;;;;;;;13.90;12.45;;;26.50;73.60;;;;;;6154581;23;20384;-83
2023/06/09 10:52:53;;;;;;;12.97;11.67;;;26.50;71.00;;;;;;6178300;23;20920;-82
2023/06/09 10:55:27;;;;;;;12.90;11.60;;;26.50;67.50;;;;;;6179936;23;20616;-82
2023/06/09 10:57:55;;;;;;;13.90;12.50;;;26.20;66.80;;;;;;6155003;23;20372;-82
2023/06/09 11:00:23;;;;;;;14.77;13.15;;;26.00;70.50;;;;;;6155331;23;20932;-82
2023/06/09 11:02:52;;;;;;;15.85;14.05;;;25.90;72.60;;;;;;6153673;23;20376;-82
2023/06/09 11:05:21;;;;;;;13.85;12.50;;;25.60;72.20;;;;;;6154812;23;20380;-83
2023/06/09 11:08:02;;;;;;;14.00;11.90;;;25.50;76.30;;;;;;6154020;23;20726;-83
2023/06/09 11:10:29;;;;;;;13.00;11.75;;;25.50;74.90;;;;;;6154113;23;20384;-82
2023/06/09 11:12:57;;;;;;;14.33;12.90;;;25.40;72.80;;;;;;6155734;23;20376;-82
2023/06/09 11:15:57;;;;;;;16.13;14.48;;;25.30;73.30;;;;;;6154594;23;20376;-81
2023/06/09 11:18:25;;;;;;;16.02;14.43;;;25.30;75.40;;;;;;6154276;23;20368;-83
2023/06/09 11:21:09;;;;;;;15.50;13.90;;;25.30;74.70;;;;;;6154972;23;20403;-82
2023/06/09 11:24:00;;;;;;;17.10;15.30;;;25.30;77.70;;;;;;6153868;23;20383;-82
2023/06/09 11:26:28;;;;;;;17.05;15.45;;;25.20;77.40;;;;;;6152280;23;20444;-82
2023/06/09 11:28:56;;;;;;;18.65;16.75;;;25.20;76.00;;;;;;6153594;23;20385;-82
2023/06/09 11:31:23;;;;;;;18.30;16.38;;;25.10;78.50;;;;;;6152391;23;20384;-82
2023/06/09 11:33:55;;;;;;;19.05;16.75;;;24.90;77.70;;;;;;6154418;23;20684;-81
2023/06/09 11:36:25;;;;;;;17.52;15.73;;;24.80;79.90;;;;;;6153230;23;20373;-82
2023/06/09 11:38:52;;;;;;;18.75;16.85;;;24.70;80.10;;;;;;6154253;23;20372;-81
2023/06/09 11:41:22;;;;;;;16.40;14.70;;;24.70;80.00;;;;;;6153103;23;20383;-82
2023/06/09 11:43:50;;;;;;;16.35;14.50;;;24.80;82.80;;;;;;6153681;23;20745;-81
2023/06/09 11:46:20;;;;;;;16.42;14.82;;;24.80;79.20;;;;;;6153962;23;20376;-81
2023/06/09 11:49:01;;;;;;;15.38;13.77;;;24.80;77.10;;;;;;6154582;23;20434;-80
2023/06/09 11:51:28;;;;;;;14.40;12.90;;;24.70;78.20;;;;;;6152740;23;20380;-81
2023/06/09 11:53:55;;;;;;;13.63;12.25;;;24.70;74.40;;;;;;6154820;23;20377;-81
2023/06/09 11:56:22;;;;;;;14.38;12.85;;;24.60;75.40;;;;;;6153373;23;20380;-81
2023/06/09 11:58:53;;;;;;;13.05;11.55;;;24.60;74.40;;;;;;6154852;23;20380;-81
2023/06/09 12:01:23;;;;;;;14.90;13.40;;;24.60;78.30;;;;;;6153211;23;20639;-81
2023/06/09 12:03:51;;;;;;;16.55;13.75;;;24.70;74.20;;;;;;6154564;23;20376;-81
2023/06/09 12:06:18;;;;;;;15.05;13.50;;;24.60;76.50;;;;;;6178535;23;20380;-81
2023/06/09 12:08:46;;;;;;;15.60;13.63;;;24.60;75.70;;;;;;6154749;23;20376;-82
2023/06/09 12:11:16;;;;;;;15.35;13.75;;;24.60;78.30;;;;;;6154319;23;20380;-80
2023/06/09 12:13:47;;;;;;;15.90;14.25;;;24.50;82.50;;;;;;6154324;23;20734;-81
2023/06/09 12:16:14;;;;;;;16.05;14.40;;;24.60;83.90;;;;;;6180583;23;20384;-81
2023/06/09 12:18:42;;;;;;;17.40;15.68;;;24.60;83.60;;;;;;6179926;23;20444;-82
2023/06/09 12:21:10;;;;;;;16.65;15.05;;;24.60;82.00;;;;;;6154504;23;20798;-80
2023/06/09 12:23:37;;;;;;;17.55;15.48;;;24.50;84.30;;;;;;6153550;23;20428;-81
2023/06/09 12:26:06;;;;;;;17.58;15.77;;;24.50;84.90;;;;;;6154638;23;20815;-81
2023/06/09 12:28:34;;;;;;;18.92;17.08;;;24.40;85.90;;;;;;6154049;23;20376;-83
2023/06/09 12:31:08;;;;;;;17.83;15.93;;;24.40;86.50;;;;;;6180472;23;20376;-81
2023/06/09 12:33:36;;;;;;;16.80;15.10;;;24.50;85.10;;;;;;6153169;23;20431;-82
2023/06/09 12:36:09;;;;;;;16.40;14.80;;;24.40;85.50;;;;;;6154132;23;20427;-83
2023/06/09 12:38:38;;;;;;;16.03;14.40;;;24.30;85.50;;;;;;6178424;23;20380;-83
2023/06/09 12:41:07;;;;;;;12.55;11.38;;;24.50;82.20;;;;;;6148981;23;20381;-82
2023/06/09 12:43:58;;;;;;;13.40;12.03;;;24.50;78.30;;;;;;6152897;23;20380;-82
2023/06/09 12:46:37;;;;;;;14.17;12.77;;;24.60;77.60;;;;;;6153070;23;20384;-82